createdAt,value
2023-02-11T00:01:15.436Z,5.60
2023-02-11T00:03:42.498Z,5.60
2023-02-11T00:06:10.747Z,5.60
2023-02-11T00:08:38.618Z,5.70
2023-02-11T00:11:05.900Z,5.70
2023-02-11T00:13:32.902Z,5.70
2023-02-11T00:15:59.859Z,5.70
2023-02-11T00:18:27.749Z,5.70
2023-02-11T00:20:54.738Z,5.70
2023-02-11T00:23:21.747Z,5.70
2023-02-11T00:25:48.969Z,5.80
2023-02-11T00:28:16.118Z,5.80
2023-02-11T00:30:43.260Z,5.80
2023-02-11T00:33:10.457Z,5.80
2023-02-11T00:35:38.753Z,5.80
2023-02-11T00:38:08.103Z,5.80
2023-02-11T00:40:35.194Z,5.70
2023-02-11T00:43:04.029Z,5.70
2023-02-11T00:45:31.095Z,5.80
2023-02-11T00:47:58.188Z,5.80
2023-02-11T00:50:25.613Z,5.70
2023-02-11T00:52:52.630Z,5.70
2023-02-11T00:55:19.651Z,5.70
2023-02-11T00:57:46.656Z,5.70
2023-02-11T01:00:16.846Z,5.70
2023-02-11T01:02:45.039Z,5.70
2023-02-11T01:05:12.036Z,5.70
2023-02-11T01:07:39.146Z,5.70
2023-02-11T01:10:06.397Z,5.70
2023-02-11T01:12:36.197Z,5.70
2023-02-11T01:15:04.741Z,5.70
2023-02-11T01:17:33.550Z,5.70
2023-02-11T01:20:06.128Z,5.70
2023-02-11T01:22:34.481Z,5.70
2023-02-11T01:25:01.539Z,5.70
2023-02-11T01:27:28.729Z,5.70
2023-02-11T01:29:57.710Z,5.80
2023-02-11T01:32:24.915Z,5.70
2023-02-11T01:34:54.873Z,5.70
2023-02-11T01:37:21.912Z,5.70
2023-02-11T01:39:48.884Z,5.80
2023-02-11T01:42:18.045Z,5.80
2023-02-11T01:44:45.226Z,5.80
2023-02-11T01:47:12.246Z,5.80
2023-02-11T01:49:44.509Z,5.80
2023-02-11T01:52:14.238Z,5.80
2023-02-11T01:55:08.318Z,5.80
2023-02-11T01:57:38.034Z,5.80
2023-02-11T02:00:21.614Z,5.80
2023-02-11T02:03:06.724Z,5.90
2023-02-11T02:05:58.410Z,5.80
2023-02-11T02:08:25.424Z,5.80
2023-02-11T02:10:56.600Z,5.80
2023-02-11T02:13:24.767Z,5.90
2023-02-11T02:16:09.955Z,5.90
2023-02-11T02:18:55.964Z,5.90
2023-02-11T02:21:41.789Z,5.90
2023-02-11T02:24:46.163Z,5.90
2023-02-11T02:27:39.440Z,5.90
2023-02-11T02:30:21.324Z,5.90
2023-02-11T02:33:24.052Z,5.90
2023-02-11T02:36:14.702Z,5.90
2023-02-11T02:39:07.459Z,5.90
2023-02-11T02:41:37.086Z,5.90
2023-02-11T02:44:04.792Z,5.90
2023-02-11T02:46:34.055Z,5.90
2023-02-11T02:49:01.305Z,6.00
2023-02-11T02:51:45.733Z,6.00
2023-02-11T02:54:24.478Z,6.00
2023-02-11T02:57:09.976Z,6.00
2023-02-11T03:00:00.033Z,6.00
2023-02-11T03:02:53.086Z,6.00
2023-02-11T03:05:44.681Z,6.00
2023-02-11T03:08:51.429Z,6.00
2023-02-11T03:11:20.366Z,6.00
2023-02-11T03:13:48.829Z,6.00
2023-02-11T03:16:25.299Z,6.10
2023-02-11T03:19:10.343Z,6.10
2023-02-11T03:21:39.360Z,6.00
2023-02-11T03:24:10.833Z,6.10
2023-02-11T03:26:46.602Z,6.10
2023-02-11T03:29:32.066Z,6.10
2023-02-11T03:32:07.568Z,6.10
2023-02-11T03:34:45.712Z,6.10
2023-02-11T03:37:33.356Z,6.20
2023-02-11T03:40:13.654Z,6.20
2023-02-11T03:42:51.779Z,6.20
2023-02-11T03:45:22.382Z,6.20
2023-02-11T03:47:55.178Z,6.20
2023-02-11T03:50:24.114Z,6.20
2023-02-11T03:52:51.662Z,6.20
2023-02-11T03:55:21.162Z,6.20
2023-02-11T03:57:48.795Z,6.20
2023-02-11T04:00:16.245Z,6.20
2023-02-11T04:02:43.663Z,6.20
2023-02-11T04:05:13.137Z,6.30
2023-02-11T04:07:40.214Z,6.30
2023-02-11T04:10:07.791Z,6.30
2023-02-11T04:12:34.777Z,6.30
2023-02-11T04:15:01.724Z,6.30
2023-02-11T04:17:28.754Z,6.30
2023-02-11T04:19:55.805Z,6.30
2023-02-11T04:22:22.809Z,6.30
2023-02-11T04:24:49.790Z,6.30
2023-02-11T04:27:17.053Z,6.40
2023-02-11T04:29:43.987Z,6.40
2023-02-11T04:32:12.321Z,6.40
2023-02-11T04:34:39.494Z,6.40
2023-02-11T04:37:06.679Z,6.40
2023-02-11T04:39:33.713Z,6.40
2023-02-11T04:42:00.769Z,6.40
2023-02-11T04:44:27.711Z,6.40
2023-02-11T04:46:54.827Z,6.40
2023-02-11T04:49:22.018Z,6.40
2023-02-11T04:51:49.638Z,6.40
2023-02-11T04:54:17.141Z,6.50
2023-02-11T04:56:44.358Z,6.40
2023-02-11T04:59:13.049Z,6.50
2023-02-11T05:01:40.577Z,6.50
2023-02-11T05:04:07.707Z,6.50
2023-02-11T05:06:34.863Z,6.50
2023-02-11T05:09:01.932Z,6.50
2023-02-11T05:11:28.983Z,6.50
2023-02-11T05:13:55.986Z,6.60
2023-02-11T05:16:23.453Z,6.60
2023-02-11T05:18:52.522Z,6.50
2023-02-11T05:21:20.486Z,6.50
2023-02-11T05:23:47.907Z,6.60
2023-02-11T05:26:15.327Z,6.60
2023-02-11T05:28:43.096Z,6.60
2023-02-11T05:31:10.439Z,6.60
2023-02-11T05:33:37.927Z,6.60
2023-02-11T05:36:08.448Z,6.60
2023-02-11T05:38:36.667Z,6.60
2023-02-11T05:41:04.485Z,6.60
2023-02-11T05:43:31.577Z,6.60
2023-02-11T05:45:59.101Z,6.60
2023-02-11T05:48:26.155Z,6.60
2023-02-11T05:50:53.060Z,6.70
2023-02-11T05:53:20.170Z,6.60
2023-02-11T05:55:47.158Z,6.70
2023-02-11T05:58:14.130Z,6.60
2023-02-11T06:00:41.121Z,6.70
2023-02-11T06:03:08.191Z,6.70
2023-02-11T06:05:35.198Z,6.70
2023-02-11T06:08:02.223Z,6.70
2023-02-11T06:10:29.246Z,6.70
2023-02-11T06:12:56.310Z,6.70
2023-02-11T06:15:23.354Z,6.70
2023-02-11T06:17:51.733Z,6.70
2023-02-11T06:20:19.029Z,6.70
2023-02-11T06:22:46.252Z,6.70
2023-02-11T06:25:13.419Z,6.70
2023-02-11T06:27:40.690Z,6.70
2023-02-11T06:30:08.635Z,6.70
2023-02-11T06:32:43.843Z,6.70
2023-02-11T06:35:12.757Z,6.70
2023-02-11T06:37:41.124Z,6.70
2023-02-11T06:40:08.544Z,6.70
2023-02-11T06:42:36.341Z,6.70
2023-02-11T06:45:06.175Z,6.70
2023-02-11T06:47:33.295Z,6.70
2023-02-11T06:50:00.229Z,6.70
2023-02-11T06:52:27.277Z,6.70
2023-02-11T06:54:54.247Z,6.70
2023-02-11T06:57:21.315Z,6.70
2023-02-11T06:59:48.337Z,6.70
2023-02-11T07:02:15.418Z,6.70
2023-02-11T07:04:42.472Z,6.80
2023-02-11T07:07:09.518Z,6.70
2023-02-11T07:09:36.470Z,6.70
2023-02-11T07:12:03.821Z,6.80
2023-02-11T07:14:30.798Z,6.70
2023-02-11T07:16:58.155Z,6.80
2023-02-11T07:19:25.133Z,6.80
2023-02-11T07:21:52.110Z,6.80
2023-02-11T07:24:19.045Z,6.80
2023-02-11T07:26:46.139Z,6.80
2023-02-11T07:29:13.110Z,6.90
2023-02-11T07:31:40.307Z,6.80
2023-02-11T07:34:07.434Z,6.90
2023-02-11T07:36:34.513Z,6.90
2023-02-11T07:39:01.544Z,6.90
2023-02-11T07:41:28.627Z,6.90
2023-02-11T07:43:56.100Z,6.90
2023-02-11T07:46:25.665Z,6.90
2023-02-11T07:48:52.894Z,6.90
2023-02-11T07:51:23.383Z,6.90
2023-02-11T07:53:50.796Z,6.90
2023-02-11T07:56:18.993Z,6.90
2023-02-11T07:58:46.796Z,6.90
2023-02-11T08:01:25.098Z,6.90
2023-02-11T08:03:53.325Z,6.90
2023-02-11T08:06:22.078Z,6.90
2023-02-11T08:08:49.574Z,6.90
2023-02-11T08:11:19.186Z,7.00
2023-02-11T08:13:46.492Z,6.90
2023-02-11T08:16:23.280Z,7.00
2023-02-11T08:18:51.412Z,7.00
2023-02-11T08:21:19.110Z,7.00
2023-02-11T08:23:46.764Z,7.00
2023-02-11T08:26:19.557Z,7.00
2023-02-11T08:28:48.425Z,7.10
2023-02-11T08:31:25.008Z,7.00
2023-02-11T08:33:52.263Z,7.10
2023-02-11T08:36:21.837Z,7.10
2023-02-11T08:38:49.196Z,7.10
2023-02-11T08:41:16.248Z,7.10
2023-02-11T08:43:44.393Z,7.10
2023-02-11T08:46:16.342Z,7.20
2023-02-11T08:48:44.342Z,7.20
2023-02-11T08:51:19.515Z,7.20
2023-02-11T08:53:47.097Z,7.20
2023-02-11T08:56:15.417Z,7.20
2023-02-11T08:58:43.282Z,7.20
2023-02-11T09:01:14.743Z,7.30
2023-02-11T09:03:41.873Z,7.30
2023-02-11T09:06:10.808Z,7.30
2023-02-11T09:08:40.455Z,7.30
2023-02-11T09:11:07.832Z,7.30
2023-02-11T09:13:35.002Z,7.40
2023-02-11T09:16:04.512Z,7.40
2023-02-11T09:18:32.294Z,7.40
2023-02-11T09:21:07.807Z,7.40
2023-02-11T09:23:35.126Z,7.40
2023-02-11T09:26:10.465Z,7.40
2023-02-11T09:28:37.575Z,7.40
2023-02-11T09:31:09.627Z,7.50
2023-02-11T09:33:38.647Z,7.50
2023-02-11T09:36:06.840Z,7.50
2023-02-11T09:38:34.418Z,7.60
2023-02-11T09:41:04.092Z,7.60
2023-02-11T09:43:44.244Z,7.70
2023-02-11T09:46:16.211Z,7.70
2023-02-11T09:48:45.694Z,7.70
2023-02-11T09:51:44.794Z,7.70
2023-02-11T09:54:19.354Z,7.80
2023-02-11T09:56:46.477Z,7.80
2023-02-11T09:59:17.692Z,7.80
2023-02-11T10:01:49.113Z,7.90
2023-02-11T10:04:28.228Z,7.90
2023-02-11T10:07:18.749Z,7.90
2023-02-11T10:09:54.009Z,7.90
2023-02-11T10:12:56.593Z,7.90
2023-02-11T10:15:52.201Z,7.90
2023-02-11T10:18:37.406Z,7.90
2023-02-11T10:21:30.849Z,7.90
2023-02-11T10:24:01.856Z,7.90
2023-02-11T10:26:31.665Z,8.00
2023-02-11T10:29:05.664Z,8.00
2023-02-11T10:31:43.678Z,8.00
2023-02-11T10:34:13.892Z,8.00
2023-02-11T10:36:44.742Z,8.00
2023-02-11T10:39:14.046Z,8.00
2023-02-11T10:41:57.312Z,8.00
2023-02-11T10:44:33.953Z,8.00
2023-02-11T10:47:06.144Z,8.10
2023-02-11T10:49:34.758Z,8.10
2023-02-11T10:52:26.959Z,8.10
2023-02-11T10:55:27.936Z,8.10
2023-02-11T10:58:02.865Z,8.10
2023-02-11T11:00:40.934Z,8.10
2023-02-11T11:03:21.783Z,8.20
2023-02-11T11:05:51.878Z,8.20
2023-02-11T11:08:19.683Z,8.20
2023-02-11T11:11:08.658Z,8.20
2023-02-11T11:13:41.074Z,8.20
2023-02-11T11:16:13.896Z,8.20
2023-02-11T11:18:46.812Z,8.30
2023-02-11T11:21:16.022Z,8.20
2023-02-11T11:23:50.417Z,8.20
2023-02-11T11:26:18.202Z,8.30
2023-02-11T11:29:07.721Z,8.30
2023-02-11T11:31:45.184Z,8.30
2023-02-11T11:34:22.192Z,8.20
2023-02-11T11:36:53.060Z,8.30
2023-02-11T11:39:32.631Z,8.30
2023-02-11T11:42:00.859Z,8.30
2023-02-11T11:44:37.476Z,8.30
2023-02-11T11:47:22.067Z,8.30
2023-02-11T11:50:12.122Z,8.30
2023-02-11T11:52:49.743Z,8.30
2023-02-11T11:55:25.362Z,8.30
2023-02-11T11:57:52.516Z,8.30
2023-02-11T12:00:24.000Z,8.40
2023-02-11T12:02:57.049Z,8.40
2023-02-11T12:05:33.051Z,8.40
2023-02-11T12:08:00.028Z,8.40
2023-02-11T12:10:54.737Z,8.40
2023-02-11T12:13:35.769Z,8.40
2023-02-11T12:16:26.464Z,8.40
2023-02-11T12:19:34.056Z,8.40
2023-02-11T12:22:11.166Z,8.40
2023-02-11T12:24:44.084Z,8.40
2023-02-11T12:27:48.628Z,8.40
2023-02-11T12:30:53.247Z,8.40
2023-02-11T12:33:44.936Z,8.50
2023-02-11T12:36:24.073Z,8.40
2023-02-11T12:39:12.195Z,8.50
2023-02-11T12:42:09.526Z,8.50
2023-02-11T12:44:56.018Z,8.40
2023-02-11T12:47:43.622Z,8.40
2023-02-11T12:50:41.680Z,8.40
2023-02-11T12:53:36.642Z,8.40
2023-02-11T12:56:32.706Z,8.40
2023-02-11T12:59:01.640Z,8.40
2023-02-11T13:01:37.374Z,8.50
2023-02-11T13:04:13.184Z,8.50
2023-02-11T13:06:55.512Z,8.50
2023-02-11T13:09:26.843Z,8.60
2023-02-11T13:12:20.659Z,8.60
2023-02-11T13:14:49.956Z,8.60
2023-02-11T13:17:41.606Z,8.70
2023-02-11T13:20:25.503Z,8.70
2023-02-11T13:23:12.775Z,8.70
2023-02-11T13:25:52.964Z,8.80
2023-02-11T13:28:26.418Z,8.80
2023-02-11T13:31:02.612Z,8.80
2023-02-11T13:33:37.782Z,8.80
2023-02-11T13:36:04.951Z,8.90
2023-02-11T13:38:32.781Z,8.90
2023-02-11T13:41:02.697Z,8.90
2023-02-11T13:43:31.503Z,8.90
2023-02-11T13:46:04.818Z,9.00
2023-02-11T13:48:33.358Z,9.00
2023-02-11T13:51:04.924Z,9.10
2023-02-11T13:53:46.774Z,9.20
2023-02-11T13:56:29.664Z,9.20
2023-02-11T13:59:01.465Z,9.20
2023-02-11T14:02:17.752Z,9.30
2023-02-11T14:05:37.831Z,9.20
2023-02-11T14:08:26.228Z,9.30
2023-02-11T14:10:54.502Z,9.30
2023-02-11T14:13:32.802Z,9.40
2023-02-11T14:16:10.762Z,9.40
2023-02-11T14:18:39.328Z,9.40
2023-02-11T14:21:28.968Z,9.40
2023-02-11T14:24:01.997Z,9.50
2023-02-11T14:26:44.355Z,9.50
2023-02-11T14:29:23.011Z,9.60
2023-02-11T14:32:05.366Z,9.60
2023-02-11T14:34:55.558Z,9.60
2023-02-11T14:37:51.094Z,9.70
2023-02-11T14:40:39.549Z,9.70
2023-02-11T14:43:30.007Z,9.80
2023-02-11T14:45:58.474Z,9.80
2023-02-11T14:48:31.469Z,9.80
2023-02-11T14:51:00.856Z,9.90
2023-02-11T14:53:30.257Z,9.90
2023-02-11T14:55:57.581Z,9.90
2023-02-11T14:58:29.591Z,9.90
2023-02-11T15:01:02.537Z,9.90
2023-02-11T15:03:39.302Z,10.00
2023-02-11T15:06:18.922Z,10.00
2023-02-11T15:08:53.522Z,10.00
2023-02-11T15:11:22.687Z,10.00
2023-02-11T15:13:50.521Z,10.00
2023-02-11T15:16:23.895Z,10.00
2023-02-11T15:19:01.421Z,10.00
2023-02-11T15:21:31.106Z,10.10
2023-02-11T15:24:03.301Z,10.10
2023-02-11T15:26:30.776Z,10.00
2023-02-11T15:28:57.883Z,10.00
2023-02-11T15:31:27.264Z,10.10
2023-02-11T15:33:55.261Z,10.00
2023-02-11T15:36:28.753Z,10.10
2023-02-11T15:39:18.677Z,10.10
2023-02-11T15:41:45.797Z,10.10
2023-02-11T15:44:30.607Z,10.10
2023-02-11T15:46:58.139Z,10.10
2023-02-11T15:49:26.484Z,10.00
2023-02-11T15:51:55.614Z,10.10
2023-02-11T15:54:29.475Z,10.00
2023-02-11T15:57:02.125Z,10.10
2023-02-11T15:59:40.648Z,10.00
2023-02-11T16:02:09.888Z,10.00
2023-02-11T16:04:37.734Z,10.00
2023-02-11T16:07:05.259Z,10.00
2023-02-11T16:09:34.817Z,10.00
2023-02-11T16:12:07.547Z,10.00
2023-02-11T16:14:42.296Z,10.00
2023-02-11T16:17:13.067Z,9.90
2023-02-11T16:19:49.158Z,9.90
2023-02-11T16:22:24.969Z,9.90
2023-02-11T16:24:54.725Z,9.90
2023-02-11T16:27:41.280Z,9.90
2023-02-11T16:30:28.980Z,9.90
2023-02-11T16:32:56.003Z,9.90
2023-02-11T16:35:22.942Z,9.90
2023-02-11T16:37:50.002Z,9.80
2023-02-11T16:40:17.192Z,9.80
2023-02-11T16:42:44.173Z,9.80
2023-02-11T16:45:12.130Z,9.80
2023-02-11T16:47:42.607Z,9.80
2023-02-11T16:50:12.158Z,9.80
2023-02-11T16:52:39.192Z,9.70
2023-02-11T16:55:06.755Z,9.70
2023-02-11T16:57:33.878Z,9.70
2023-02-11T17:00:00.992Z,9.70
2023-02-11T17:02:35.007Z,9.70
2023-02-11T17:05:03.533Z,9.70
2023-02-11T17:07:31.056Z,9.60
2023-02-11T17:09:58.575Z,9.60
2023-02-11T17:12:25.909Z,9.60
2023-02-11T17:14:53.859Z,9.60
2023-02-11T17:17:23.259Z,9.60
2023-02-11T17:19:51.151Z,9.50
2023-02-11T17:22:18.794Z,9.50
2023-02-11T17:24:45.977Z,9.50
2023-02-11T17:27:13.208Z,9.50
2023-02-11T17:29:40.214Z,9.50
2023-02-11T17:32:07.276Z,9.50
2023-02-11T17:34:34.417Z,9.50
2023-02-11T17:37:03.201Z,9.50
2023-02-11T17:39:30.226Z,9.40
2023-02-11T17:41:57.167Z,9.40
2023-02-11T17:44:24.137Z,9.40
2023-02-11T17:46:51.256Z,9.40
2023-02-11T17:49:19.273Z,9.40
2023-02-11T17:51:46.689Z,9.40
2023-02-11T17:54:16.922Z,9.30
2023-02-11T17:56:45.118Z,9.30
2023-02-11T17:59:14.080Z,9.30
2023-02-11T18:01:42.348Z,9.30
2023-02-11T18:04:13.630Z,9.20
2023-02-11T18:06:40.863Z,9.20
2023-02-11T18:09:07.911Z,9.20
2023-02-11T18:11:37.185Z,9.20
2023-02-11T18:14:07.782Z,9.20
2023-02-11T18:16:36.691Z,9.10
2023-02-11T18:19:04.057Z,9.10
2023-02-11T18:21:31.044Z,9.10
2023-02-11T18:24:01.121Z,9.00
2023-02-11T18:26:29.812Z,9.00
2023-02-11T18:29:00.557Z,9.00
2023-02-11T18:31:28.138Z,9.00
2023-02-11T18:33:55.363Z,9.00
2023-02-11T18:36:23.008Z,8.90
2023-02-11T18:38:50.098Z,9.00
2023-02-11T18:41:17.140Z,8.90
2023-02-11T18:43:44.189Z,8.90
2023-02-11T18:46:13.303Z,8.90
2023-02-11T18:48:40.956Z,8.90
2023-02-11T18:51:13.613Z,8.90
2023-02-11T18:53:40.887Z,8.90
2023-02-11T18:56:10.754Z,8.90
2023-02-11T18:58:38.365Z,8.90
2023-02-11T19:01:17.778Z,8.90
2023-02-11T19:03:45.651Z,8.90
2023-02-11T19:06:21.822Z,8.90
2023-02-11T19:08:48.980Z,8.90
2023-02-11T19:11:17.960Z,8.90
2023-02-11T19:13:45.428Z,8.90
2023-02-11T19:16:14.235Z,8.80
2023-02-11T19:18:41.286Z,8.80
2023-02-11T19:21:10.288Z,8.80
2023-02-11T19:23:37.747Z,8.80
2023-02-11T19:26:06.467Z,8.80
2023-02-11T19:28:35.408Z,8.80
2023-02-11T19:31:07.245Z,8.80
2023-02-11T19:33:34.326Z,8.80
2023-02-11T19:36:09.506Z,8.80
2023-02-11T19:38:36.608Z,8.80
2023-02-11T19:41:03.557Z,8.70
2023-02-11T19:43:30.747Z,8.70
2023-02-11T19:45:58.498Z,8.70
2023-02-11T19:48:26.057Z,8.80
2023-02-11T19:50:53.430Z,8.70
2023-02-11T19:53:20.791Z,8.70
2023-02-11T19:55:48.319Z,8.70
2023-02-11T19:58:16.483Z,8.70
2023-02-11T20:00:43.757Z,8.70
2023-02-11T20:03:10.852Z,8.70
2023-02-11T20:05:43.463Z,8.70
2023-02-11T20:08:10.503Z,8.70
2023-02-11T20:10:37.442Z,8.70
2023-02-11T20:13:04.560Z,8.70
2023-02-11T20:15:31.749Z,8.70
2023-02-11T20:17:58.840Z,8.70
2023-02-11T20:20:25.864Z,8.70
2023-02-11T20:22:52.863Z,8.70
2023-02-11T20:25:19.886Z,8.70
2023-02-11T20:27:46.966Z,8.70
2023-02-11T20:30:14.450Z,8.70
2023-02-11T20:32:41.580Z,8.70
2023-02-11T20:35:09.722Z,8.70
2023-02-11T20:37:36.776Z,8.70
2023-02-11T20:40:03.919Z,8.70
2023-02-11T20:42:30.954Z,8.70
2023-02-11T20:44:57.926Z,8.70
2023-02-11T20:47:24.964Z,8.70
2023-02-11T20:49:55.086Z,8.60
2023-02-11T20:52:22.102Z,8.70
2023-02-11T20:54:49.025Z,8.60
2023-02-11T20:57:16.050Z,8.60
2023-02-11T20:59:42.940Z,8.60
2023-02-11T21:02:10.330Z,8.70
2023-02-11T21:04:39.135Z,8.60
2023-02-11T21:07:06.304Z,8.60
2023-02-11T21:09:33.716Z,8.60
2023-02-11T21:12:01.648Z,8.60
2023-02-11T21:14:29.281Z,8.60
2023-02-11T21:16:56.746Z,8.60
2023-02-11T21:19:23.977Z,8.60
2023-02-11T21:21:51.223Z,8.60
2023-02-11T21:24:18.239Z,8.60
2023-02-11T21:26:45.419Z,8.50
2023-02-11T21:29:12.389Z,8.60
2023-02-11T21:31:40.225Z,8.60
2023-02-11T21:34:07.550Z,8.50
2023-02-11T21:36:35.027Z,8.50
2023-02-11T21:39:03.889Z,8.50
2023-02-11T21:41:31.003Z,8.50
2023-02-11T21:43:57.954Z,8.50
2023-02-11T21:46:25.385Z,8.50
2023-02-11T21:48:52.686Z,8.50
2023-02-11T21:51:22.533Z,8.50
2023-02-11T21:53:57.792Z,8.50
2023-02-11T21:56:28.986Z,8.50
2023-02-11T21:58:58.350Z,8.50
2023-02-11T22:01:28.643Z,8.50
2023-02-11T22:03:56.316Z,8.50
2023-02-11T22:06:31.161Z,8.50
2023-02-11T22:08:59.528Z,8.40
2023-02-11T22:11:26.502Z,8.40
2023-02-11T22:13:55.512Z,8.40
2023-02-11T22:16:23.343Z,8.40
2023-02-11T22:18:51.536Z,8.40
2023-02-11T22:21:21.424Z,8.40
2023-02-11T22:23:49.454Z,8.40
2023-02-11T22:26:21.850Z,8.40
2023-02-11T22:28:49.936Z,8.40
2023-02-11T22:31:20.088Z,8.40
2023-02-11T22:33:47.529Z,8.40
2023-02-11T22:36:25.976Z,8.40
2023-02-11T22:38:54.116Z,8.40
2023-02-11T22:41:21.098Z,8.40
2023-02-11T22:43:48.261Z,8.40
2023-02-11T22:46:18.002Z,8.40
2023-02-11T22:48:46.167Z,8.40
2023-02-11T22:51:28.608Z,8.40
2023-02-11T22:53:58.402Z,8.40
2023-02-11T22:56:26.126Z,8.40
2023-02-11T22:58:56.553Z,8.40
2023-02-11T23:01:23.649Z,8.40
2023-02-11T23:03:50.802Z,8.40
2023-02-11T23:06:18.213Z,8.40
2023-02-11T23:08:45.501Z,8.40
2023-02-11T23:11:16.641Z,8.40
2023-02-11T23:13:45.034Z,8.40
2023-02-11T23:16:15.426Z,8.40
2023-02-11T23:18:43.988Z,8.40
2023-02-11T23:21:17.552Z,8.40
2023-02-11T23:23:45.792Z,8.40
2023-02-11T23:26:14.879Z,8.40
2023-02-11T23:28:45.933Z,8.40
2023-02-11T23:31:35.413Z,8.40
2023-02-11T23:34:02.603Z,8.40
2023-02-11T23:36:30.369Z,8.40
2023-02-11T23:38:57.425Z,8.40
2023-02-11T23:41:25.449Z,8.40
2023-02-11T23:43:55.518Z,8.40
2023-02-11T23:46:24.001Z,8.30
2023-02-11T23:48:51.819Z,8.30
2023-02-11T23:51:19.913Z,8.30
2023-02-11T23:53:49.113Z,8.30
2023-02-11T23:56:21.146Z,8.30
2023-02-11T23:58:50.189Z,8.30
